createdAt,value
2023-09-06T00:00:43.279Z,19.24
2023-09-06T00:03:52.346Z,19.27
2023-09-06T00:07:01.291Z,19.16
2023-09-06T00:10:10.173Z,19.13
2023-09-06T00:13:18.877Z,19.11
2023-09-06T00:16:34.247Z,19.09
2023-09-06T00:19:43.199Z,18.98
2023-09-06T00:23:03.324Z,18.79
2023-09-06T00:26:18.179Z,18.81
2023-09-06T00:29:26.193Z,18.74
2023-09-06T00:32:41.261Z,18.72
2023-09-06T00:35:56.213Z,18.67
2023-09-06T00:39:11.183Z,18.66
2023-09-06T00:42:19.799Z,18.56
2023-09-06T00:45:54.228Z,18.61
2023-09-06T00:49:10.314Z,18.59
2023-09-06T00:52:12.382Z,18.56
2023-09-06T00:55:28.177Z,18.42
2023-09-06T00:58:37.718Z,18.42
2023-09-06T01:01:52.400Z,18.35
2023-09-06T01:05:07.190Z,18.39
2023-09-06T01:08:26.641Z,18.39
2023-09-06T01:11:35.755Z,18.50
2023-09-06T01:14:50.183Z,18.41
2023-09-06T01:18:03.039Z,18.46
2023-09-06T01:21:18.178Z,18.41
2023-09-06T01:24:34.215Z,18.24
2023-09-06T01:27:43.205Z,18.23
2023-09-06T01:30:58.438Z,18.31
2023-09-06T01:34:00.458Z,18.20
2023-09-06T01:37:15.243Z,18.17
2023-09-06T01:40:30.194Z,18.25
2023-09-06T01:43:38.209Z,18.10
2023-09-06T01:46:53.240Z,18.10
2023-09-06T01:49:55.212Z,18.03
2023-09-06T01:53:10.220Z,18.03
2023-09-06T01:56:18.923Z,17.97
2023-09-06T01:59:27.221Z,17.96
2023-09-06T02:02:35.895Z,17.99
2023-09-06T02:05:44.203Z,17.95
2023-09-06T02:08:59.174Z,17.94
2023-09-06T02:12:01.064Z,17.84
2023-09-06T02:15:17.209Z,17.82
2023-09-06T02:18:19.171Z,17.82
2023-09-06T02:21:41.198Z,17.75
2023-09-06T02:24:49.824Z,17.78
2023-09-06T02:27:59.290Z,17.77
2023-09-06T02:31:07.789Z,17.69
2023-09-06T02:34:22.290Z,17.60
2023-09-06T02:37:31.216Z,17.60
2023-09-06T02:40:46.227Z,17.57
2023-09-06T02:44:01.261Z,17.61
2023-09-06T02:47:03.270Z,17.54
2023-09-06T02:50:18.256Z,17.52
2023-09-06T02:53:34.216Z,17.46
2023-09-06T02:56:42.804Z,17.36
2023-09-06T02:59:51.232Z,17.38
2023-09-06T03:03:01.166Z,17.35
2023-09-06T03:06:09.230Z,17.35
2023-09-06T03:09:31.265Z,17.28
2023-09-06T03:12:39.828Z,17.25
2023-09-06T03:15:54.294Z,17.27
2023-09-06T03:19:02.772Z,17.35
2023-09-06T03:22:24.363Z,17.26
2023-09-06T03:25:39.294Z,17.28
2023-09-06T03:28:47.818Z,17.18
2023-09-06T03:32:03.326Z,17.22
2023-09-06T03:35:11.864Z,17.15
2023-09-06T03:38:20.267Z,17.19
2023-09-06T03:41:28.762Z,17.17
2023-09-06T03:44:37.240Z,17.08
2023-09-06T03:47:45.953Z,17.10
2023-09-06T03:50:57.257Z,17.06
2023-09-06T03:54:12.244Z,17.06
2023-09-06T03:57:27.223Z,17.02
2023-09-06T04:00:35.943Z,17.00
2023-09-06T04:03:51.284Z,16.97
2023-09-06T04:07:06.241Z,16.95
2023-09-06T04:10:14.834Z,16.96
2023-09-06T04:13:29.265Z,16.96
2023-09-06T04:16:38.436Z,16.91
2023-09-06T04:19:47.223Z,16.94
2023-09-06T04:23:09.932Z,16.92
2023-09-06T04:26:25.267Z,16.90
2023-09-06T04:29:27.278Z,16.86
2023-09-06T04:32:42.303Z,16.94
2023-09-06T04:35:53.265Z,16.81
2023-09-06T04:39:01.808Z,16.84
2023-09-06T04:42:16.243Z,16.79
2023-09-06T04:45:18.204Z,16.86
2023-09-06T04:48:33.615Z,16.89
2023-09-06T04:51:49.242Z,16.83
2023-09-06T04:54:51.256Z,16.80
2023-09-06T04:58:06.228Z,16.85
2023-09-06T05:01:21.268Z,16.85
2023-09-06T05:04:23.182Z,16.87
2023-09-06T05:07:38.254Z,16.98
2023-09-06T05:10:57.245Z,17.08
2023-09-06T05:14:12.267Z,17.09
2023-09-06T05:17:20.848Z,17.16
2023-09-06T05:20:38.240Z,17.11
2023-09-06T05:23:53.225Z,17.20
2023-09-06T05:27:01.904Z,17.27
2023-09-06T05:30:17.231Z,17.36
2023-09-06T05:33:32.246Z,17.42
2023-09-06T05:36:40.819Z,17.46
2023-09-06T05:39:55.303Z,17.55
2023-09-06T05:42:57.603Z,17.61
2023-09-06T05:49:23.268Z,17.75
2023-09-06T05:52:38.284Z,17.71
2023-09-06T05:55:46.382Z,17.60
2023-09-06T05:58:54.860Z,17.84
2023-09-06T06:02:03.663Z,17.91
2023-09-06T06:05:18.320Z,18.01
2023-09-06T06:08:20.364Z,18.10
2023-09-06T06:11:35.258Z,18.22
2023-09-06T06:14:39.920Z,18.31
2023-09-06T06:17:56.372Z,18.40
2023-09-06T06:21:18.271Z,18.55
2023-09-06T06:24:33.300Z,18.72
2023-09-06T06:27:48.587Z,18.92
2023-09-06T06:31:03.286Z,19.10
2023-09-06T06:34:05.354Z,19.24
2023-09-06T06:37:20.279Z,19.36
2023-09-06T06:40:35.266Z,19.56
2023-09-06T06:43:37.355Z,19.67
2023-09-06T06:46:52.372Z,19.77
2023-09-06T06:50:00.929Z,19.88
2023-09-06T06:53:09.315Z,19.96
2023-09-06T06:56:17.966Z,20.11
2023-09-06T06:59:28.268Z,20.27
2023-09-06T07:02:46.383Z,20.48
2023-09-06T07:05:54.840Z,20.70
2023-09-06T07:09:09.257Z,20.93
2023-09-06T07:12:24.265Z,21.22
2023-09-06T07:15:32.522Z,21.41
2023-09-06T07:18:47.276Z,21.58
2023-09-06T07:22:02.616Z,21.73
2023-09-06T07:25:17.292Z,22.02
2023-09-06T07:28:29.498Z,22.29
2023-09-06T07:31:38.049Z,22.35
2023-09-06T07:34:46.298Z,22.65
2023-09-06T07:38:01.354Z,22.91
2023-09-06T07:41:16.300Z,23.09
2023-09-06T07:44:19.422Z,22.96
2023-09-06T07:47:34.474Z,23.20
2023-09-06T07:50:42.940Z,23.39
2023-09-06T07:53:51.301Z,23.48
2023-09-06T07:57:06.301Z,23.57
2023-09-06T08:00:08.814Z,23.94
2023-09-06T08:03:23.387Z,24.41
2023-09-06T08:06:25.514Z,24.41
2023-09-06T08:09:40.308Z,24.61
2023-09-06T08:12:48.962Z,24.82
2023-09-06T08:15:57.347Z,25.34
2023-09-06T08:19:12.291Z,25.51
2023-09-06T08:22:39.254Z,25.49
2023-09-06T08:25:59.295Z,25.86
2023-09-06T08:29:01.724Z,25.78
2023-09-06T08:32:16.454Z,26.14
2023-09-06T08:35:25.323Z,26.21
2023-09-06T08:38:40.339Z,26.28
2023-09-06T08:41:55.401Z,26.54
2023-09-06T08:45:06.746Z,26.76
2023-09-06T08:48:16.397Z,26.56
2023-09-06T08:51:25.443Z,26.65
2023-09-06T08:54:41.398Z,27.02
2023-09-06T08:57:50.318Z,27.09
2023-09-06T09:00:59.554Z,27.25
2023-09-06T09:04:08.830Z,27.55
2023-09-06T09:07:18.739Z,27.81
2023-09-06T09:10:27.314Z,27.49
2023-09-06T09:13:43.312Z,27.62
2023-09-06T09:16:45.356Z,27.87
2023-09-06T09:20:06.317Z,28.18
2023-09-06T09:23:21.623Z,28.32
2023-09-06T09:26:37.332Z,28.11
2023-09-06T09:29:39.548Z,27.79
2023-09-06T09:32:54.408Z,28.02
2023-09-06T09:36:09.374Z,28.17
2023-09-06T09:39:18.393Z,28.19
2023-09-06T09:42:33.356Z,27.93
2023-09-06T09:45:52.345Z,27.83
2023-09-06T09:49:02.974Z,28.02
2023-09-06T09:52:17.363Z,28.21
2023-09-06T09:55:35.330Z,28.79
2023-09-06T09:58:45.325Z,28.63
2023-09-06T10:01:56.981Z,28.47
2023-09-06T10:05:13.750Z,28.47
2023-09-06T10:08:25.342Z,28.63
2023-09-06T10:11:35.936Z,28.49
2023-09-06T10:14:50.426Z,28.73
2023-09-06T10:17:59.589Z,28.93
2023-09-06T10:21:09.357Z,29.20
2023-09-06T10:24:31.360Z,29.29
2023-09-06T10:28:03.401Z,29.24
2023-09-06T10:31:20.416Z,29.28
2023-09-06T10:34:29.335Z,29.31
2023-09-06T10:38:01.572Z,29.02
2023-09-06T10:41:16.353Z,28.69
2023-09-06T10:44:24.368Z,29.29
2023-09-06T10:47:36.471Z,29.58
2023-09-06T10:50:46.421Z,29.54
2023-09-06T10:53:57.204Z,29.47
2023-09-06T10:57:22.343Z,29.57
2023-09-06T11:00:32.462Z,29.40
2023-09-06T11:03:48.414Z,29.50
2023-09-06T11:06:54.184Z,29.26
2023-09-06T11:10:09.500Z,29.62
2023-09-06T11:13:15.305Z,29.30
2023-09-06T11:16:33.364Z,29.26
2023-09-06T11:19:35.621Z,29.45
2023-09-06T11:22:59.001Z,29.08
2023-09-06T11:26:08.292Z,29.59
2023-09-06T11:29:23.344Z,29.23
2023-09-06T11:32:38.397Z,29.48
2023-09-06T11:35:55.351Z,30.00
2023-09-06T11:39:05.187Z,30.05
2023-09-06T11:42:22.367Z,29.97
2023-09-06T11:45:26.197Z,29.57
2023-09-06T11:48:41.387Z,29.47
2023-09-06T11:51:51.362Z,29.65
2023-09-06T11:55:00.437Z,29.58
2023-09-06T11:58:21.381Z,29.55
2023-09-06T12:01:36.466Z,29.69
2023-09-06T12:04:52.558Z,29.86
2023-09-06T12:08:07.371Z,29.73
2023-09-06T12:11:21.600Z,29.93
2023-09-06T12:14:30.434Z,29.86
2023-09-06T12:17:41.473Z,29.74
2023-09-06T12:20:56.426Z,29.48
2023-09-06T12:24:18.409Z,29.45
2023-09-06T12:27:20.647Z,29.66
2023-09-06T12:30:35.435Z,29.43
2023-09-06T12:33:51.449Z,29.60
2023-09-06T12:37:00.108Z,29.84
2023-09-06T12:40:19.453Z,29.65
2023-09-06T12:43:28.509Z,29.44
2023-09-06T12:46:37.405Z,29.54
2023-09-06T12:49:53.443Z,29.48
2023-09-06T12:52:56.201Z,29.56
2023-09-06T12:56:15.282Z,29.61
2023-09-06T12:59:25.069Z,29.67
2023-09-06T13:02:41.569Z,29.35
2023-09-06T13:05:50.524Z,29.44
2023-09-06T13:09:05.515Z,29.51
2023-09-06T13:12:14.455Z,29.18
2023-09-06T13:15:30.462Z,29.42
2023-09-06T13:18:45.541Z,29.25
2023-09-06T13:22:00.709Z,29.35
2023-09-06T13:25:18.449Z,28.96
2023-09-06T13:28:26.447Z,29.30
2023-09-06T13:31:41.651Z,29.17
2023-09-06T13:34:43.973Z,29.42
2023-09-06T13:37:58.416Z,29.05
2023-09-06T13:41:00.871Z,29.24
2023-09-06T13:44:15.448Z,29.04
2023-09-06T13:47:17.835Z,28.97
2023-09-06T13:50:32.459Z,29.07
2023-09-06T13:53:41.591Z,28.71
2023-09-06T13:56:56.454Z,29.07
2023-09-06T14:00:05.445Z,29.20
2023-09-06T14:03:14.334Z,28.99
2023-09-06T14:06:29.469Z,28.97
2023-09-06T14:09:31.400Z,29.13
2023-09-06T14:12:53.463Z,29.02
2023-09-06T14:15:56.044Z,28.99
2023-09-06T14:22:41.537Z,29.02
2023-09-06T14:25:56.483Z,29.07
2023-09-06T14:29:11.499Z,29.03
2023-09-06T14:32:20.504Z,28.89
2023-09-06T14:35:29.338Z,28.98
2023-09-06T14:38:37.466Z,28.97
2023-09-06T14:41:45.991Z,28.92
2023-09-06T14:45:00.456Z,28.85
2023-09-06T14:48:10.425Z,28.82
2023-09-06T14:51:25.420Z,28.67
2023-09-06T14:54:40.419Z,28.83
2023-09-06T14:57:42.378Z,28.74
2023-09-06T15:00:57.533Z,28.64
2023-09-06T15:03:59.868Z,28.52
2023-09-06T15:07:15.485Z,28.52
2023-09-06T15:10:17.709Z,28.47
2023-09-06T15:13:33.473Z,28.46
2023-09-06T15:16:43.881Z,28.51
2023-09-06T15:19:58.473Z,28.43
2023-09-06T15:23:20.477Z,28.33
2023-09-06T15:26:29.094Z,28.14
2023-09-06T15:29:43.490Z,28.27
2023-09-06T15:32:52.367Z,28.29
2023-09-06T15:36:01.472Z,28.25
2023-09-06T15:39:16.483Z,28.03
2023-09-06T15:42:25.307Z,28.01
2023-09-06T15:45:34.496Z,27.92
2023-09-06T15:48:43.307Z,27.98
2023-09-06T15:51:52.528Z,27.93
2023-09-06T15:55:01.368Z,27.85
2023-09-06T15:58:10.521Z,27.70
2023-09-06T16:01:19.612Z,27.58
2023-09-06T16:04:28.569Z,27.50
2023-09-06T16:07:38.552Z,27.51
2023-09-06T16:10:47.519Z,27.35
2023-09-06T16:14:03.496Z,27.13
2023-09-06T16:17:13.320Z,27.11
2023-09-06T16:20:29.982Z,27.03
2023-09-06T16:23:41.179Z,26.91
2023-09-06T16:26:57.999Z,26.86
2023-09-06T16:30:08.002Z,26.66
2023-09-06T16:33:23.608Z,26.58
2023-09-06T16:36:39.938Z,26.50
2023-09-06T16:39:51.644Z,26.26
2023-09-06T16:43:00.564Z,26.19
2023-09-06T16:46:09.672Z,26.02
2023-09-06T16:49:19.495Z,25.88
2023-09-06T16:52:35.502Z,25.77
2023-09-06T16:55:38.027Z,25.64
2023-09-06T16:58:53.559Z,25.51
2023-09-06T17:02:02.660Z,25.35
2023-09-06T17:05:17.554Z,25.19
2023-09-06T17:08:26.246Z,25.02
2023-09-06T17:11:34.510Z,24.88
2023-09-06T17:14:49.517Z,24.79
2023-09-06T17:18:05.536Z,24.72
2023-09-06T17:21:27.514Z,24.60
2023-09-06T17:24:43.586Z,24.50
2023-09-06T17:27:52.265Z,24.31
2023-09-06T17:31:01.526Z,24.16
2023-09-06T17:34:17.556Z,24.00
2023-09-06T17:37:26.960Z,23.83
2023-09-06T17:40:46.644Z,23.76
2023-09-06T17:43:55.666Z,23.63
2023-09-06T17:47:04.502Z,23.48
2023-09-06T17:50:20.571Z,23.45
2023-09-06T17:53:29.652Z,23.34
2023-09-06T17:56:44.529Z,23.30
2023-09-06T17:59:54.510Z,23.23
2023-09-06T18:03:05.746Z,23.19
2023-09-06T18:06:21.732Z,23.17
2023-09-06T18:09:37.535Z,23.08
2023-09-06T18:12:48.549Z,22.97
2023-09-06T18:16:03.602Z,22.93
2023-09-06T18:19:21.535Z,22.89
2023-09-06T18:22:43.540Z,22.80
2023-09-06T18:25:45.852Z,22.70
2023-09-06T18:29:01.821Z,22.58
2023-09-06T18:32:12.000Z,22.47
2023-09-06T18:35:28.562Z,22.43
2023-09-06T18:38:37.541Z,22.36
2023-09-06T18:41:53.542Z,22.30
2023-09-06T18:44:57.209Z,22.29
2023-09-06T18:48:16.414Z,22.24
2023-09-06T18:51:20.347Z,22.24
2023-09-06T18:54:37.548Z,22.18
2023-09-06T18:58:05.929Z,22.12
2023-09-06T19:01:25.644Z,22.15
2023-09-06T19:04:36.538Z,22.21
2023-09-06T19:07:55.973Z,22.20
2023-09-06T19:10:59.886Z,22.19
2023-09-06T19:14:16.973Z,22.22
2023-09-06T19:17:21.543Z,22.27
2023-09-06T19:20:39.589Z,22.25
2023-09-06T19:23:56.956Z,22.21
2023-09-06T19:27:14.644Z,22.21
2023-09-06T19:30:28.580Z,22.19
2023-09-06T19:33:39.150Z,22.23
2023-09-06T19:36:52.830Z,22.17
2023-09-06T19:40:10.565Z,22.17
2023-09-06T19:43:21.572Z,22.14
2023-09-06T19:46:39.686Z,22.13
2023-09-06T19:49:42.946Z,22.11
2023-09-06T19:52:59.635Z,22.10
2023-09-06T19:56:23.706Z,22.09
2023-09-06T19:59:34.689Z,22.11
2023-09-06T20:02:47.149Z,22.09
2023-09-06T20:06:06.002Z,22.03
2023-09-06T20:09:23.585Z,21.96
2023-09-06T20:12:40.590Z,21.86
2023-09-06T20:15:50.692Z,21.86
2023-09-06T20:19:00.007Z,21.78
2023-09-06T20:22:15.591Z,21.72
2023-09-06T20:25:24.179Z,21.69
2023-09-06T20:28:39.605Z,21.66
2023-09-06T20:31:54.626Z,21.65
2023-09-06T20:35:03.554Z,21.61
2023-09-06T20:38:19.610Z,21.59
2023-09-06T20:41:28.636Z,21.57
2023-09-06T20:44:43.592Z,21.61
2023-09-06T20:47:53.974Z,21.58
2023-09-06T20:51:04.624Z,21.53
2023-09-06T20:54:13.660Z,21.46
2023-09-06T20:57:22.659Z,21.45
2023-09-06T21:00:31.648Z,21.35
2023-09-06T21:03:39.661Z,21.36
2023-09-06T21:06:48.419Z,21.28
2023-09-06T21:09:56.618Z,21.17
2023-09-06T21:13:05.549Z,21.05
2023-09-06T21:16:13.689Z,21.03
2023-09-06T21:19:22.220Z,21.00
2023-09-06T21:22:43.616Z,20.79
2023-09-06T21:25:52.417Z,20.76
2023-09-06T21:29:17.986Z,20.80
2023-09-06T21:32:42.607Z,20.77
2023-09-06T21:35:52.592Z,20.60
2023-09-06T21:39:01.149Z,20.57
2023-09-06T21:42:15.621Z,20.60
2023-09-06T21:45:17.485Z,20.59
2023-09-06T21:48:32.750Z,20.43
2023-09-06T21:51:34.838Z,20.38
2023-09-06T21:54:49.672Z,20.32
2023-09-06T21:58:08.799Z,20.25
2023-09-06T22:01:19.779Z,20.18
2023-09-06T22:04:34.724Z,20.08
2023-09-06T22:07:43.134Z,20.15
2023-09-06T22:10:57.602Z,20.16
2023-09-06T22:14:12.630Z,20.13
2023-09-06T22:17:21.652Z,20.08
2023-09-06T22:20:36.581Z,20.06
2023-09-06T22:23:51.872Z,20.03
2023-09-06T22:27:00.579Z,20.07
2023-09-06T22:30:16.605Z,20.05
2023-09-06T22:33:18.475Z,20.03
2023-09-06T22:36:35.632Z,19.70
2023-09-06T22:39:37.571Z,19.96
2023-09-06T22:42:52.664Z,19.99
2023-09-06T22:46:07.695Z,19.97
2023-09-06T22:49:22.656Z,19.93
2023-09-06T22:52:37.681Z,19.93
2023-09-06T22:55:52.604Z,19.91
2023-09-06T22:58:54.472Z,19.93
2023-09-06T23:02:10.610Z,19.91
2023-09-06T23:05:12.919Z,19.96
2023-09-06T23:08:27.617Z,20.05
2023-09-06T23:11:36.612Z,20.05
2023-09-06T23:14:52.632Z,20.03
2023-09-06T23:18:00.706Z,20.04
2023-09-06T23:21:09.482Z,20.00
2023-09-06T23:24:24.604Z,19.94
2023-09-06T23:27:33.149Z,19.86
2023-09-06T23:30:41.609Z,19.75
2023-09-06T23:33:50.243Z,19.79
2023-09-06T23:36:59.646Z,19.72
2023-09-06T23:40:08.902Z,19.56
2023-09-06T23:43:23.704Z,19.58
2023-09-06T23:46:32.781Z,19.54
2023-09-06T23:49:41.736Z,19.53
2023-09-06T23:52:50.685Z,19.48
2023-09-06T23:56:03.944Z,19.44
2023-09-06T23:59:18.640Z,19.39
